Time;durP1;ratioP1;P1;durP2;ratioP2;P2;SDS_P1;SDS_P2;PMS_P1;PMS_P2;Temp;Humidity;BMP_temperature;BMP_pressure;BME280_temperature;BME280_humidity;BME280_pressure;Samples;Min_cycle;Max_cycle;Signal;HPM_P1;HPM_P2
2022/12/10 00:01:15;;;;;;;59.60;24.98;;;-0.40;99.90;;;;;;5056898;28;20040;-63
2022/12/10 00:03:42;;;;;;;55.90;24.60;;;-0.30;99.90;;;;;;5056965;28;20032;-65
2022/12/10 00:06:11;;;;;;;60.95;24.85;;;-0.30;99.90;;;;;;5056053;28;20049;-63
2022/12/10 00:08:37;;;;;;;59.75;26.73;;;-0.10;99.90;;;;;;5056890;28;20062;-65
2022/12/10 00:11:06;;;;;;;60.30;26.52;;;0.00;99.90;;;;;;5057040;28;20068;-65
2022/12/10 00:13:33;;;;;;;59.45;25.98;;;0.00;99.90;;;;;;5055978;28;20035;-65
2022/12/10 00:16:00;;;;;;;64.25;26.77;;;-0.10;99.90;;;;;;5056763;28;20146;-65
2022/12/10 00:18:26;;;;;;;62.30;25.25;;;-0.10;99.90;;;;;;5056772;28;20029;-64
2022/12/10 00:20:52;;;;;;;60.22;26.50;;;-0.10;99.90;;;;;;5039505;28;20025;-65
2022/12/10 00:23:18;;;;;;;62.05;25.98;;;-0.20;99.90;;;;;;5039500;28;20114;-63
2022/12/10 00:25:44;;;;;;;59.78;25.35;;;-0.10;99.90;;;;;;5055980;28;20041;-64
2022/12/10 00:28:10;;;;;;;62.42;25.70;;;-0.10;99.90;;;;;;5056005;28;20423;-63
2022/12/10 00:30:36;;;;;;;61.70;25.52;;;0.00;99.90;;;;;;5055970;28;20305;-64
2022/12/10 00:33:02;;;;;;;62.40;25.85;;;0.00;99.90;;;;;;5055930;28;20033;-63
2022/12/10 00:35:28;;;;;;;60.85;25.38;;;0.20;99.90;;;;;;5055806;28;20406;-62
2022/12/10 00:37:54;;;;;;;67.60;27.42;;;0.20;99.90;;;;;;5055655;28;20118;-62
2022/12/10 00:40:22;;;;;;;66.55;27.55;;;0.10;99.90;;;;;;5025820;28;20312;-63
2022/12/10 00:42:47;;;;;;;59.72;26.52;;;0.00;99.90;;;;;;5060590;28;20025;-63
2022/12/10 00:45:13;;;;;;;61.58;26.58;;;0.20;99.90;;;;;;5059945;28;20029;-64
2022/12/10 00:47:39;;;;;;;62.95;27.58;;;0.40;99.90;;;;;;5059781;28;20086;-64
2022/12/10 00:50:05;;;;;;;64.55;28.83;;;0.60;99.90;;;;;;5060586;28;20124;-65
2022/12/10 00:52:31;;;;;;;63.70;27.67;;;0.80;99.90;;;;;;5060006;28;20044;-65
2022/12/10 00:54:57;;;;;;;68.03;28.85;;;0.90;99.90;;;;;;5059787;28;20124;-64
2022/12/10 00:57:23;;;;;;;67.25;29.92;;;0.90;99.90;;;;;;5059324;28;20045;-63
2022/12/10 00:59:49;;;;;;;62.45;27.77;;;0.60;99.90;;;;;;5060321;28;20411;-63
2022/12/10 01:02:15;;;;;;;66.65;28.33;;;0.40;99.90;;;;;;5059596;28;20036;-63
2022/12/10 01:04:41;;;;;;;63.40;28.23;;;0.00;99.90;;;;;;5060282;28;20025;-63
2022/12/10 01:07:08;;;;;;;70.78;29.00;;;-0.20;99.90;;;;;;5042993;28;20088;-63
2022/12/10 01:09:34;;;;;;;65.60;27.55;;;-0.40;99.90;;;;;;5042800;28;20361;-63
2022/12/10 01:12:01;;;;;;;67.75;29.52;;;-0.50;99.90;;;;;;5059237;28;20071;-63
2022/12/10 01:14:31;;;;;;;66.80;29.00;;;-0.50;99.90;;;;;;5059459;28;20112;-63
2022/12/10 01:16:59;;;;;;;69.15;29.55;;;-0.30;99.90;;;;;;5059832;28;20029;-63
2022/12/10 01:19:28;;;;;;;70.07;27.23;;;-0.20;99.90;;;;;;5059299;28;20021;-62
2022/12/10 01:21:57;;;;;;;64.40;27.02;;;-0.20;99.90;;;;;;5059145;28;20036;-64
2022/12/10 01:24:24;;;;;;;73.32;26.90;;;-0.50;99.90;;;;;;5059154;28;20102;-63
2022/12/10 01:26:51;;;;;;;64.97;27.80;;;-0.60;99.90;;;;;;5059117;28;20040;-63
2022/12/10 01:29:17;;;;;;;68.47;26.42;;;-0.50;99.90;;;;;;5059034;28;20171;-63
2022/12/10 01:31:44;;;;;;;70.72;25.70;;;-0.50;99.90;;;;;;5059707;28;20021;-63
2022/12/10 01:34:13;;;;;;;82.60;24.92;;;-0.60;99.90;;;;;;5059699;28;20028;-62
2022/12/10 01:36:48;;;;;;;68.50;27.90;;;-0.70;99.90;;;;;;5059566;28;20324;-62
2022/12/10 01:39:16;;;;;;;88.75;27.27;;;-0.70;99.90;;;;;;5026750;28;20035;-63
2022/12/10 01:41:49;;;;;;;73.78;28.00;;;-0.80;99.90;;;;;;5059593;28;20029;-63
2022/12/10 01:44:17;;;;;;;69.57;26.58;;;-0.80;99.90;;;;;;5058778;28;20017;-63
2022/12/10 01:46:45;;;;;;;71.55;27.55;;;-0.80;99.90;;;;;;5059441;28;20343;-64
2022/12/10 01:49:42;;;;;;;83.07;28.05;;;-0.60;99.90;;;;;;5059497;28;20037;-63
2022/12/10 01:52:12;;;;;;;75.53;27.40;;;-0.40;99.90;;;;;;5056475;28;20041;-63
2022/12/10 01:54:41;;;;;;;81.43;28.30;;;-0.40;99.90;;;;;;5058646;28;20114;-63
2022/12/10 01:57:09;;;;;;;78.00;27.25;;;-0.50;99.90;;;;;;5058455;28;20021;-64
2022/12/10 01:59:36;;;;;;;74.57;28.50;;;-0.40;99.90;;;;;;5042009;28;20029;-64
2022/12/10 02:02:40;;;;;;;81.22;27.02;;;-0.50;99.90;;;;;;5058471;28;20408;-63
2022/12/10 02:05:18;;;;;;;80.63;27.75;;;-0.40;99.90;;;;;;5058699;28;20049;-63
2022/12/10 02:08:06;;;;;;;68.28;20.15;;;-0.50;99.90;;;;;;5058437;28;20048;-64
2022/12/10 02:10:58;;;;;;;78.90;26.55;;;-0.60;99.90;;;;;;5058961;28;20270;-64
2022/12/10 02:13:24;;;;;;;81.45;26.85;;;-0.60;99.90;;;;;;5058329;28;20397;-64
2022/12/10 02:15:54;;;;;;;91.88;28.27;;;-0.40;99.90;;;;;;5058911;28;20052;-66
2022/12/10 02:18:27;;;;;;;75.15;27.80;;;-0.10;99.90;;;;;;5058833;28;20067;-65
2022/12/10 02:20:57;;;;;;;66.70;21.03;;;0.00;99.90;;;;;;5058982;28;20059;-65
2022/12/10 02:23:42;;;;;;;72.53;25.95;;;-0.10;99.90;;;;;;5058331;28;20071;-64
2022/12/10 02:26:26;;;;;;;70.13;25.58;;;-0.30;99.90;;;;;;5058050;28;20296;-64
2022/12/10 02:28:52;;;;;;;73.07;25.23;;;-0.30;99.90;;;;;;5058139;28;20025;-64
2022/12/10 02:31:24;;;;;;;67.90;25.55;;;-0.20;99.90;;;;;;5058531;28;20120;-65
2022/12/10 02:33:54;;;;;;;69.43;24.30;;;0.00;99.90;;;;;;5057872;28;20029;-65
2022/12/10 02:36:23;;;;;;;78.13;24.65;;;0.00;99.90;;;;;;5057811;28;20274;-63
2022/12/10 02:38:52;;;;;;;83.53;24.58;;;-0.30;99.90;;;;;;5057732;28;20311;-64
2022/12/10 02:41:30;;;;;;;67.07;24.60;;;-0.50;99.90;;;;;;5057759;28;20024;-64
2022/12/10 02:44:00;;;;;;;72.15;23.95;;;-0.60;99.90;;;;;;5057721;28;20044;-63
2022/12/10 02:46:36;;;;;;;65.78;23.90;;;-0.70;99.90;;;;;;5057660;28;20040;-64
2022/12/10 02:49:06;;;;;;;74.95;24.80;;;-0.60;99.90;;;;;;5057614;28;20028;-63
2022/12/10 02:51:34;;;;;;;87.88;24.70;;;-0.60;99.90;;;;;;5041244;28;20380;-64
2022/12/10 02:54:02;;;;;;;82.57;26.75;;;-0.50;99.90;;;;;;5024433;28;20094;-64
2022/12/10 02:56:54;;;;;;;80.82;26.75;;;-0.50;99.90;;;;;;5057667;28;20047;-66
2022/12/10 02:59:26;;;;;;;69.97;26.45;;;-0.40;99.90;;;;;;5057510;28;20021;-63
2022/12/10 03:02:17;;;;;;;102.88;26.88;;;-0.20;99.90;;;;;;5057119;28;20032;-64
2022/12/10 03:05:01;;;;;;;80.90;27.35;;;-0.10;99.90;;;;;;5055354;28;20060;-64
2022/12/10 03:07:42;;;;;;;78.68;27.13;;;0.00;99.90;;;;;;5057110;28;20059;-64
2022/12/10 03:10:24;;;;;;;87.95;28.15;;;0.00;99.90;;;;;;5058027;28;20044;-64
2022/12/10 03:12:58;;;;;;;82.30;28.75;;;0.00;99.90;;;;;;5058048;28;20104;-64
2022/12/10 03:15:27;;;;;;;80.72;26.95;;;0.00;99.90;;;;;;5057698;28;20025;-64
2022/12/10 03:17:55;;;;;;;77.28;26.70;;;0.10;99.90;;;;;;5057792;28;20304;-64
2022/12/10 03:20:23;;;;;;;80.03;27.13;;;0.00;99.90;;;;;;5057697;28;20044;-64
2022/12/10 03:22:49;;;;;;;77.97;26.27;;;-0.10;99.90;;;;;;5040276;28;20024;-64
2022/12/10 03:25:21;;;;;;;79.30;24.42;;;-0.40;99.90;;;;;;5057173;28;20739;-63
2022/12/10 03:27:51;;;;;;;83.85;26.15;;;-0.60;99.90;;;;;;5057454;28;20044;-63
2022/12/10 03:30:17;;;;;;;83.60;25.35;;;-0.70;99.90;;;;;;5056818;28;20040;-64
2022/12/10 03:32:44;;;;;;;75.38;26.13;;;-0.70;99.90;;;;;;5057489;28;20041;-64
2022/12/10 03:35:12;;;;;;;75.90;25.02;;;-0.60;99.90;;;;;;5057475;28;20029;-64
2022/12/10 03:37:39;;;;;;;94.13;24.70;;;-0.40;99.90;;;;;;5056499;28;20036;-64
2022/12/10 03:40:07;;;;;;;75.65;26.27;;;-0.30;99.90;;;;;;5056577;28;20112;-64
2022/12/10 03:42:35;;;;;;;86.63;26.88;;;-0.20;99.90;;;;;;5056699;28;20381;-65
2022/12/10 03:45:01;;;;;;;93.45;25.48;;;-0.20;99.90;;;;;;5040013;28;20125;-64
2022/12/10 03:47:27;;;;;;;73.57;25.33;;;-0.30;99.90;;;;;;5057349;28;20033;-64
2022/12/10 03:49:53;;;;;;;88.47;26.33;;;-0.40;99.90;;;;;;5056578;28;20158;-64
2022/12/10 03:52:19;;;;;;;81.63;25.65;;;-0.50;99.90;;;;;;5057140;28;20025;-63
2022/12/10 03:54:44;;;;;;;67.20;24.63;;;-0.70;99.90;;;;;;5056372;28;20039;-64
2022/12/10 03:57:10;;;;;;;78.30;25.42;;;-0.60;99.90;;;;;;5056094;28;20064;-65
2022/12/10 03:59:36;;;;;;;79.57;25.65;;;-0.30;99.90;;;;;;5057029;28;20405;-64
2022/12/10 04:02:02;;;;;;;81.07;25.63;;;-0.30;99.90;;;;;;5057063;28;20040;-64
2022/12/10 04:04:28;;;;;;;76.18;27.00;;;-0.30;99.90;;;;;;5057046;28;20029;-65
2022/12/10 04:06:54;;;;;;;83.45;28.10;;;-0.20;99.90;;;;;;5055964;28;20107;-65
2022/12/10 04:09:20;;;;;;;77.30;26.25;;;0.00;99.90;;;;;;5056959;28;20037;-64
2022/12/10 04:11:46;;;;;;;91.28;26.38;;;-0.10;99.90;;;;;;5056169;28;20381;-63
2022/12/10 04:16:58;;;;;;;75.82;25.48;;;-0.50;99.90;;;;;;5056575;28;20036;-64
2022/12/10 04:19:24;;;;;;;76.10;25.55;;;-0.40;99.90;;;;;;5055994;28;20036;-65
2022/12/10 04:27:30;;;;;;;73.10;25.45;;;-0.30;99.90;;;;;;5055796;28;20037;-64
2022/12/10 04:29:57;;;;;;;73.35;25.85;;;-0.40;99.90;;;;;;5057104;28;20128;-64
2022/12/10 04:32:24;;;;;;;67.97;24.38;;;-0.50;99.90;;;;;;5056022;28;20076;-63
2022/12/10 04:34:50;;;;;;;71.43;22.58;;;-0.40;99.90;;;;;;5057077;28;20025;-63
2022/12/10 04:37:17;;;;;;;88.57;23.83;;;-0.70;99.90;;;;;;5039116;28;20040;-64
2022/12/10 04:39:43;;;;;;;75.13;23.90;;;-0.80;99.90;;;;;;5056540;28;20029;-64
2022/12/10 04:42:09;;;;;;;67.53;23.23;;;-0.70;99.90;;;;;;5055668;28;20082;-64
2022/12/10 04:44:35;;;;;;;74.60;25.17;;;-0.50;99.90;;;;;;5057290;28;20021;-64
2022/12/10 04:47:01;;;;;;;92.13;23.35;;;-0.30;99.90;;;;;;5056544;28;20033;-62
2022/12/10 04:49:27;;;;;;;77.53;24.30;;;-0.40;99.90;;;;;;5056575;28;20040;-64
2022/12/10 04:51:53;;;;;;;85.85;25.38;;;-0.60;99.90;;;;;;5056492;28;20404;-64
2022/12/10 04:54:19;;;;;;;82.22;25.52;;;-0.50;99.90;;;;;;5056444;28;20029;-64
2022/12/10 04:56:45;;;;;;;76.63;23.10;;;-0.60;99.90;;;;;;5055974;28;20040;-64
2022/12/10 04:59:12;;;;;;;95.68;24.45;;;-0.60;99.90;;;;;;5039020;28;20075;-64
2022/12/10 05:01:38;;;;;;;67.40;22.38;;;-0.80;99.90;;;;;;5055692;28;20033;-65
2022/12/10 05:04:07;;;;;;;105.65;36.22;;;-0.80;99.90;;;;;;5055475;28;20095;-65
2022/12/10 05:06:34;;;;;;;82.38;24.88;;;-0.70;99.90;;;;;;5054959;28;20053;-64
2022/12/10 05:09:00;;;;;;;76.72;23.35;;;-0.50;99.90;;;;;;5056195;28;20032;-64
2022/12/10 05:11:28;;;;;;;109.53;24.90;;;-0.60;99.90;;;;;;5056270;28;20029;-64
2022/12/10 05:13:54;;;;;;;76.60;24.88;;;-0.50;99.90;;;;;;5056172;28;20203;-65
2022/12/10 05:16:22;;;;;;;83.72;26.20;;;-0.30;99.90;;;;;;5056244;28;20413;-65
2022/12/10 05:18:48;;;;;;;79.30;24.75;;;-0.10;99.90;;;;;;5056249;28;20052;-65
2022/12/10 05:21:18;;;;;;;88.57;26.08;;;0.00;99.90;;;;;;5056268;28;20235;-65
2022/12/10 05:23:48;;;;;;;93.63;24.85;;;0.10;99.90;;;;;;5056227;28;20388;-64
2022/12/10 05:26:18;;;;;;;88.57;25.35;;;-0.30;99.90;;;;;;5058583;28;20108;-64
2022/12/10 05:28:55;;;;;;;81.18;24.67;;;-0.50;99.90;;;;;;5059897;28;20163;-64
2022/12/10 05:31:21;;;;;;;87.90;25.55;;;-0.60;99.90;;;;;;5059860;28;20033;-64
2022/12/10 05:33:48;;;;;;;73.47;24.60;;;-0.50;99.90;;;;;;5058998;28;20378;-64
2022/12/10 05:36:17;;;;;;;91.35;24.35;;;-0.60;99.90;;;;;;5059015;28;20112;-64
2022/12/10 05:38:43;;;;;;;74.68;23.42;;;-0.60;99.90;;;;;;5059599;28;20389;-64
2022/12/10 05:41:15;;;;;;;83.03;22.98;;;-0.70;99.90;;;;;;5059602;28;20300;-64
2022/12/10 05:43:41;;;;;;;79.40;24.05;;;-0.80;99.90;;;;;;5058908;28;20029;-64
2022/12/10 05:46:10;;;;;;;90.97;25.40;;;-0.90;99.90;;;;;;5059409;28;20021;-64
2022/12/10 05:48:37;;;;;;;83.95;27.48;;;-0.80;99.90;;;;;;5059324;28;20041;-64
2022/12/10 05:51:07;;;;;;;108.47;25.40;;;-0.60;99.90;;;;;;5059338;28;20404;-64
2022/12/10 05:53:33;;;;;;;105.90;25.10;;;-0.60;99.90;;;;;;5058658;28;20032;-64
2022/12/10 05:56:20;;;;;;;88.38;25.92;;;-0.60;99.90;;;;;;5041969;28;20045;-64
2022/12/10 05:58:48;;;;;;;83.85;24.38;;;-0.70;99.90;;;;;;5058043;28;20049;-64
2022/12/10 06:01:18;;;;;;;80.22;25.88;;;-0.60;99.90;;;;;;5059364;28;20029;-65
2022/12/10 06:03:44;;;;;;;86.90;24.38;;;-0.50;99.90;;;;;;5058472;28;20305;-65
2022/12/10 06:06:10;;;;;;;79.55;24.38;;;-0.70;99.90;;;;;;5059330;28;20049;-64
2022/12/10 06:08:38;;;;;;;73.32;22.63;;;-0.70;99.90;;;;;;5058316;28;20426;-65
2022/12/10 06:11:09;;;;;;;81.93;22.73;;;-0.80;99.90;;;;;;5058264;28;20032;-64
2022/12/10 06:13:35;;;;;;;81.07;23.88;;;-0.80;99.90;;;;;;5059016;28;20343;-64
2022/12/10 06:16:06;;;;;;;94.30;22.50;;;-0.90;99.90;;;;;;5059013;28;20041;-64
2022/12/10 06:18:32;;;;;;;70.35;22.65;;;-0.90;99.90;;;;;;5059023;28;20301;-64
2022/12/10 06:20:58;;;;;;;86.80;22.42;;;-0.90;99.90;;;;;;5058967;28;20036;-64
2022/12/10 06:23:24;;;;;;;63.65;21.40;;;-0.90;99.90;;;;;;5058236;28;20084;-65
2022/12/10 06:25:49;;;;;;;86.97;21.70;;;-0.80;99.90;;;;;;5041536;28;20029;-64
2022/12/10 06:28:15;;;;;;;73.68;21.10;;;-0.80;99.90;;;;;;5058859;28;20041;-65
2022/12/10 06:30:41;;;;;;;82.47;22.75;;;-0.90;99.90;;;;;;5041361;28;20036;-66
2022/12/10 06:33:07;;;;;;;71.03;22.40;;;-0.90;99.90;;;;;;5058538;28;20045;-65
2022/12/10 06:35:33;;;;;;;72.20;23.98;;;-0.70;99.90;;;;;;5057917;28;20380;-64
2022/12/10 06:37:58;;;;;;;83.68;23.65;;;-0.70;99.90;;;;;;5058000;28;20120;-65
2022/12/10 06:40:24;;;;;;;69.35;23.30;;;-0.60;99.90;;;;;;5058674;28;20036;-63
2022/12/10 06:42:53;;;;;;;82.03;25.17;;;-0.70;99.90;;;;;;5057524;28;20400;-64
2022/12/10 06:45:19;;;;;;;82.10;26.05;;;-0.60;99.90;;;;;;5058434;28;20040;-65
2022/12/10 06:47:44;;;;;;;88.75;23.80;;;-0.60;99.90;;;;;;5058420;28;20041;-64
2022/12/10 06:50:10;;;;;;;74.05;24.67;;;-0.60;99.90;;;;;;5040890;28;20348;-64
2022/12/10 06:52:36;;;;;;;97.32;24.73;;;-0.60;99.90;;;;;;5057920;28;20421;-64
2022/12/10 06:55:02;;;;;;;81.18;24.92;;;-0.70;99.90;;;;;;5058206;28;20385;-64
2022/12/10 06:57:28;;;;;;;74.43;22.77;;;-0.80;99.90;;;;;;5040723;28;20388;-64
2022/12/10 06:59:54;;;;;;;78.78;24.52;;;-0.90;99.90;;;;;;5058157;28;20021;-64
2022/12/10 07:02:20;;;;;;;81.25;23.23;;;-1.00;99.90;;;;;;5058009;28;20389;-63
2022/12/10 07:04:46;;;;;;;81.05;23.85;;;-1.00;99.90;;;;;;5057277;28;20040;-63
2022/12/10 07:07:11;;;;;;;99.75;24.63;;;-1.00;99.90;;;;;;5057912;28;20142;-65
2022/12/10 07:09:37;;;;;;;70.25;23.88;;;-0.90;99.90;;;;;;5057819;28;20025;-66
2022/12/10 07:12:04;;;;;;;95.60;24.50;;;-0.90;99.90;;;;;;5057073;28;20025;-64
2022/12/10 07:14:29;;;;;;;78.35;25.13;;;-0.80;99.90;;;;;;5057871;28;20103;-64
2022/12/10 07:16:55;;;;;;;86.97;23.55;;;-0.60;99.90;;;;;;5057069;28;20432;-62
2022/12/10 07:19:22;;;;;;;71.97;23.38;;;-0.80;99.90;;;;;;5040390;28;20029;-65
2022/12/10 07:21:48;;;;;;;94.05;23.60;;;-0.70;99.90;;;;;;5057659;28;20032;-64
2022/12/10 07:24:16;;;;;;;79.22;23.40;;;-0.70;99.90;;;;;;5057706;28;20090;-64
2022/12/10 07:26:44;;;;;;;74.72;24.08;;;-0.70;99.90;;;;;;5056900;28;20041;-63
2022/12/10 07:29:15;;;;;;;78.25;23.35;;;-0.60;99.90;;;;;;5057501;28;20036;-64
2022/12/10 07:31:41;;;;;;;74.13;23.80;;;-0.30;99.90;;;;;;5056766;28;20040;-63
2022/12/10 07:34:06;;;;;;;65.20;23.27;;;-0.30;99.90;;;;;;5057356;28;20025;-64
2022/12/10 07:36:33;;;;;;;67.80;24.83;;;-0.20;99.90;;;;;;5056722;28;20099;-66
2022/12/10 07:38:58;;;;;;;79.28;24.63;;;-0.10;99.90;;;;;;5056362;28;20024;-64
2022/12/10 07:41:25;;;;;;;75.78;24.77;;;0.00;99.90;;;;;;5057592;28;20081;-67
2022/12/10 07:43:52;;;;;;;89.78;26.90;;;0.10;99.90;;;;;;5057303;28;20078;-64
2022/12/10 07:46:21;;;;;;;73.70;23.85;;;0.30;99.90;;;;;;5056397;28;20021;-66
2022/12/10 07:48:48;;;;;;;103.45;21.90;;;0.40;99.90;;;;;;5056303;28;20040;-65
2022/12/10 07:51:15;;;;;;;102.35;23.50;;;0.00;99.90;;;;;;5056817;28;20114;-66
2022/12/10 07:53:42;;;;;;;82.65;23.38;;;-0.20;99.90;;;;;;5039736;28;20055;-66
2022/12/10 07:56:09;;;;;;;65.75;23.00;;;-0.20;99.90;;;;;;5056801;28;20260;-66
2022/12/10 07:58:35;;;;;;;67.10;21.83;;;-0.50;99.90;;;;;;5056102;28;20057;-65
2022/12/10 08:01:12;;;;;;;73.13;22.67;;;-0.60;99.90;;;;;;5057009;28;20053;-66
2022/12/10 08:03:38;;;;;;;73.18;22.73;;;-0.70;99.90;;;;;;5056804;28;20045;-65
2022/12/10 08:06:07;;;;;;;69.80;23.30;;;-0.70;99.90;;;;;;5056629;28;20055;-65
2022/12/10 08:08:34;;;;;;;72.18;24.08;;;-0.70;99.90;;;;;;5056052;28;20029;-64
2022/12/10 08:11:01;;;;;;;73.63;23.58;;;-0.70;99.90;;;;;;5056258;28;20388;-65
2022/12/10 08:13:28;;;;;;;79.82;24.65;;;-0.70;99.90;;;;;;5056360;28;20126;-65
2022/12/10 08:15:54;;;;;;;73.20;23.25;;;-0.60;99.90;;;;;;5057440;28;20029;-65
2022/12/10 08:18:20;;;;;;;78.60;24.50;;;-0.60;99.90;;;;;;5039392;28;20060;-65
2022/12/10 08:20:46;;;;;;;87.53;23.02;;;-0.70;99.90;;;;;;5056123;28;20108;-65
2022/12/10 08:23:12;;;;;;;69.72;22.85;;;-0.60;99.90;;;;;;5056076;28;20052;-65
2022/12/10 08:25:38;;;;;;;72.32;22.70;;;-0.70;99.90;;;;;;5056118;28;20052;-66
2022/12/10 08:28:04;;;;;;;71.57;23.58;;;-0.50;99.90;;;;;;5055940;28;20029;-65
2022/12/10 08:30:30;;;;;;;76.05;23.90;;;-0.60;99.90;;;;;;5039434;28;20094;-65
2022/12/10 08:32:56;;;;;;;86.78;23.85;;;-0.60;99.90;;;;;;5056644;28;20037;-64
2022/12/10 08:35:21;;;;;;;74.55;24.45;;;-0.80;99.90;;;;;;5056002;28;20355;-65
2022/12/10 08:37:47;;;;;;;100.70;25.65;;;-0.80;99.90;;;;;;5039181;28;20044;-64
2022/12/10 08:40:13;;;;;;;79.05;22.45;;;-0.80;99.90;;;;;;5057180;28;20072;-65
2022/12/10 08:42:39;;;;;;;83.35;26.17;;;-0.70;99.90;;;;;;5056300;28;20037;-65
2022/12/10 08:45:05;;;;;;;78.70;24.73;;;-0.60;99.90;;;;;;5056164;28;20037;-65
2022/12/10 08:47:31;;;;;;;83.57;25.38;;;-0.60;99.90;;;;;;5056794;28;20052;-65
2022/12/10 08:49:57;;;;;;;83.88;25.15;;;-0.50;99.90;;;;;;5022820;28;20029;-64
2022/12/10 08:52:23;;;;;;;80.88;25.08;;;-0.50;99.90;;;;;;5022735;28;20029;-65
2022/12/10 08:54:48;;;;;;;77.90;23.83;;;-0.40;99.90;;;;;;5039320;28;20045;-65
2022/12/10 08:57:14;;;;;;;87.97;23.63;;;-0.30;99.90;;;;;;5056020;28;20415;-65
2022/12/10 08:59:40;;;;;;;84.68;23.80;;;-0.40;99.90;;;;;;5055756;28;20297;-64
2022/12/10 09:02:10;;;;;;;83.97;24.65;;;-0.50;99.90;;;;;;5042307;28;20040;-65
2022/12/10 09:04:36;;;;;;;81.45;25.42;;;-0.50;99.90;;;;;;5059584;28;20108;-64
2022/12/10 09:07:01;;;;;;;91.47;26.67;;;-0.40;99.90;;;;;;5059216;28;20144;-64
2022/12/10 09:09:27;;;;;;;83.43;26.45;;;-0.30;99.90;;;;;;5059350;28;20048;-64
2022/12/10 09:11:53;;;;;;;76.47;25.38;;;-0.20;99.90;;;;;;5059456;28;20053;-64
2022/12/10 09:14:19;;;;;;;107.30;24.25;;;-0.10;99.90;;;;;;5042908;28;20094;-63
2022/12/10 09:16:44;;;;;;;77.15;23.42;;;-0.10;99.90;;;;;;5059333;28;20119;-63
2022/12/10 09:19:10;;;;;;;72.75;23.35;;;-0.40;99.90;;;;;;5059971;28;20452;-63
2022/12/10 09:21:36;;;;;;;88.35;25.50;;;-0.30;99.90;;;;;;5059720;28;20032;-64
2022/12/10 09:24:02;;;;;;;89.10;25.30;;;-0.20;99.90;;;;;;5059225;28;20029;-64
2022/12/10 09:26:28;;;;;;;74.38;25.42;;;0.00;99.90;;;;;;5026096;28;20036;-64
2022/12/10 09:28:54;;;;;;;106.10;26.63;;;0.00;99.90;;;;;;5059206;28;20084;-67
2022/12/10 09:31:20;;;;;;;88.03;26.20;;;0.20;99.90;;;;;;5059063;28;20048;-67
2022/12/10 09:33:49;;;;;;;73.75;24.90;;;0.30;99.90;;;;;;5059811;28;20104;-66
2022/12/10 09:36:15;;;;;;;76.72;25.80;;;0.00;99.90;;;;;;5059154;28;20033;-65
2022/12/10 09:38:43;;;;;;;113.40;24.30;;;-0.20;99.90;;;;;;5058869;28;20033;-65
2022/12/10 09:41:15;;;;;;;88.60;24.73;;;-0.20;99.90;;;;;;5058962;28;20021;-67
2022/12/10 09:43:49;;;;;;;73.27;24.23;;;-0.30;99.90;;;;;;5042214;28;20380;-65
2022/12/10 09:46:31;;;;;;;82.15;23.45;;;-0.40;99.90;;;;;;5058745;28;20552;-65
2022/12/10 09:49:20;;;;;;;76.88;24.25;;;-0.40;99.90;;;;;;5059462;28;20457;-65
2022/12/10 09:51:46;;;;;;;71.00;23.35;;;-0.50;99.90;;;;;;5058708;28;20029;-66
2022/12/10 09:54:24;;;;;;;89.97;24.77;;;-0.40;99.90;;;;;;5059543;28;20079;-66
2022/12/10 09:56:52;;;;;;;66.95;23.42;;;-0.30;99.90;;;;;;5058603;28;20090;-66
2022/12/10 09:59:41;;;;;;;78.88;24.20;;;-0.30;99.90;;;;;;5058507;28;20113;-66
2022/12/10 10:02:27;;;;;;;72.90;23.92;;;-0.10;99.90;;;;;;5059339;28;20048;-66
2022/12/10 10:05:06;;;;;;;77.32;24.27;;;0.20;99.90;;;;;;5059921;28;20323;-65
2022/12/10 10:07:37;;;;;;;70.28;23.20;;;0.20;99.90;;;;;;5059544;28;20045;-65
2022/12/10 10:10:09;;;;;;;68.85;23.25;;;0.10;99.90;;;;;;5058466;28;20029;-65
2022/12/10 10:12:38;;;;;;;67.28;22.25;;;0.10;99.90;;;;;;5058430;28;20029;-65
2022/12/10 10:15:18;;;;;;;64.75;23.52;;;0.30;99.90;;;;;;5059102;28;20040;-65
2022/12/10 10:17:46;;;;;;;67.55;23.65;;;0.20;99.90;;;;;;5041523;28;20029;-65
2022/12/10 10:20:13;;;;;;;73.38;24.17;;;0.40;99.90;;;;;;5058316;28;20040;-63
2022/12/10 10:22:42;;;;;;;73.43;25.85;;;0.50;99.90;;;;;;5058212;28;20017;-64
2022/12/10 10:25:19;;;;;;;76.03;23.50;;;0.30;99.90;;;;;;5058843;28;20032;-65
2022/12/10 10:27:45;;;;;;;72.68;23.33;;;0.30;99.90;;;;;;5058466;28;20041;-64
2022/12/10 10:30:20;;;;;;;73.93;25.48;;;0.10;99.90;;;;;;5058786;28;20021;-67
2022/12/10 10:32:55;;;;;;;70.50;24.20;;;0.00;99.90;;;;;;5058706;28;20041;-64
2022/12/10 10:35:28;;;;;;;78.00;25.30;;;0.10;99.90;;;;;;5058578;28;20033;-66
2022/12/10 10:38:05;;;;;;;71.88;24.73;;;-0.10;99.90;;;;;;5058545;28;20108;-64
2022/12/10 10:40:39;;;;;;;76.78;25.08;;;0.10;99.90;;;;;;5057799;28;20029;-64
2022/12/10 10:43:05;;;;;;;75.03;24.77;;;0.20;99.90;;;;;;5057812;28;20036;-64
2022/12/10 10:45:41;;;;;;;73.50;24.67;;;0.40;99.90;;;;;;5058423;28;20033;-64
2022/12/10 10:48:13;;;;;;;71.60;22.05;;;0.40;99.90;;;;;;5058372;28;20032;-64
2022/12/10 10:50:42;;;;;;;70.97;21.13;;;0.30;99.90;;;;;;5058976;28;20297;-64
2022/12/10 10:53:33;;;;;;;63.70;20.52;;;0.10;99.90;;;;;;5058335;28;20056;-65
2022/12/10 10:56:16;;;;;;;67.78;20.85;;;0.00;99.90;;;;;;5040734;28;20040;-64
2022/12/10 10:59:06;;;;;;;57.70;19.88;;;0.00;99.90;;;;;;5040816;28;20037;-64
2022/12/10 11:01:53;;;;;;;59.05;20.67;;;0.20;99.90;;;;;;5058122;28;20040;-65
2022/12/10 11:04:37;;;;;;;62.88;22.23;;;0.50;99.90;;;;;;5057414;28;20363;-64
2022/12/10 11:07:12;;;;;;;59.35;20.45;;;0.60;99.90;;;;;;5056981;28;20132;-66
2022/12/10 11:09:38;;;;;;;53.78;18.50;;;0.60;99.90;;;;;;5057253;28;20021;-66
2022/12/10 11:12:07;;;;;;;49.90;19.58;;;0.80;99.90;;;;;;5040808;28;20171;-67
2022/12/10 11:14:41;;;;;;;52.22;19.13;;;1.00;99.90;;;;;;5057947;28;20029;-68
2022/12/10 11:17:10;;;;;;;57.97;19.83;;;1.30;99.90;;;;;;5057552;28;20037;-66
2022/12/10 11:19:43;;;;;;;53.45;21.42;;;1.30;99.90;;;;;;5057017;28;20037;-66
2022/12/10 11:22:22;;;;;;;63.10;21.45;;;1.00;99.90;;;;;;5057117;28;20021;-66
2022/12/10 11:24:48;;;;;;;61.40;20.83;;;0.60;99.90;;;;;;5056858;28;20025;-66
2022/12/10 11:27:38;;;;;;;59.38;22.20;;;0.70;99.90;;;;;;5058051;28;20304;-66
2022/12/10 11:30:19;;;;;;;61.22;21.63;;;0.60;99.90;;;;;;5057034;28;20029;-66
2022/12/10 11:32:57;;;;;;;64.10;21.42;;;0.60;99.90;;;;;;5057678;28;20060;-67
2022/12/10 11:35:35;;;;;;;59.10;21.40;;;0.80;99.90;;;;;;5057585;28;20037;-65
2022/12/10 11:38:15;;;;;;;53.28;19.20;;;0.70;99.90;;;;;;5056682;28;20117;-66
2022/12/10 11:40:49;;;;;;;55.78;19.55;;;0.50;99.90;;;;;;5056827;28;20032;-67
2022/12/10 11:43:45;;;;;;;56.70;20.95;;;0.70;99.90;;;;;;5056588;28;20032;-67
2022/12/10 11:46:40;;;;;;;59.92;21.00;;;1.00;99.90;;;;;;5056684;28;20392;-67
2022/12/10 11:49:42;;;;;;;51.55;19.42;;;1.00;99.90;;;;;;5056683;28;20037;-67
2022/12/10 11:52:32;;;;;;;61.72;21.27;;;0.90;99.90;;;;;;5046331;28;20037;-66
2022/12/10 11:55:01;;;;;;;57.85;20.85;;;0.90;99.90;;;;;;5057819;28;20047;-67
2022/12/10 11:57:45;;;;;;;58.15;20.40;;;0.80;99.90;;;;;;5057085;28;20369;-67
2022/12/10 12:00:19;;;;;;;60.85;21.77;;;0.90;99.90;;;;;;5056475;28;20113;-67
2022/12/10 12:03:15;;;;;;;57.53;21.38;;;0.80;99.90;;;;;;5057300;28;20384;-67
2022/12/10 12:06:05;;;;;;;50.88;19.63;;;0.90;99.90;;;;;;5056932;28;20037;-66
2022/12/10 12:08:37;;;;;;;60.83;20.98;;;0.70;99.90;;;;;;5056979;28;20108;-67
2022/12/10 12:11:25;;;;;;;59.35;20.73;;;0.90;99.90;;;;;;5039672;28;20393;-66
2022/12/10 12:14:29;;;;;;;60.00;20.85;;;0.90;99.90;;;;;;5056178;28;20238;-67
2022/12/10 12:17:03;;;;;;;58.95;20.63;;;1.00;99.90;;;;;;5056227;28;20036;-68
2022/12/10 12:19:33;;;;;;;59.72;21.25;;;1.10;99.90;;;;;;5056208;28;20049;-67
2022/12/10 12:22:09;;;;;;;55.00;20.55;;;1.10;99.90;;;;;;5057375;28;20025;-66
2022/12/10 12:24:38;;;;;;;55.70;19.35;;;1.10;99.90;;;;;;5056835;28;20021;-66
2022/12/10 12:27:28;;;;;;;58.42;20.70;;;1.10;99.90;;;;;;5055971;28;20044;-66
2022/12/10 12:30:16;;;;;;;64.38;22.73;;;0.90;99.90;;;;;;5056843;28;20033;-65
2022/12/10 12:32:50;;;;;;;60.35;21.73;;;1.00;99.90;;;;;;5056728;28;20036;-65
2022/12/10 12:35:19;;;;;;;64.03;21.08;;;1.00;99.90;;;;;;5057569;28;20033;-66
2022/12/10 12:37:52;;;;;;;57.65;20.77;;;1.10;99.90;;;;;;5062536;28;20020;-65
2022/12/10 12:40:39;;;;;;;60.53;21.33;;;1.10;99.90;;;;;;5062933;28;20273;-66
2022/12/10 12:43:19;;;;;;;57.80;21.35;;;1.30;99.90;;;;;;5063519;28;20110;-66
2022/12/10 12:45:54;;;;;;;53.20;20.05;;;1.30;99.90;;;;;;5045910;28;20036;-66
2022/12/10 12:48:38;;;;;;;56.03;21.42;;;1.40;99.90;;;;;;5063196;28;20052;-65
2022/12/10 12:51:08;;;;;;;54.35;21.80;;;1.50;99.90;;;;;;5063304;28;20060;-64
2022/12/10 12:53:35;;;;;;;51.80;20.63;;;1.60;99.90;;;;;;5063126;28;20128;-65
2022/12/10 12:56:16;;;;;;;59.45;22.10;;;1.50;99.90;;;;;;5063454;28;20041;-65